createdAt,value
2022-10-01T00:01:19.980Z,28.00
2022-10-01T00:03:49.329Z,28.00
2022-10-01T00:06:20.050Z,28.00
2022-10-01T00:08:51.193Z,28.00
2022-10-01T00:11:21.235Z,28.00
2022-10-01T00:13:50.315Z,28.00
2022-10-01T00:16:20.547Z,28.00
2022-10-01T00:18:50.641Z,28.00
2022-10-01T00:21:21.193Z,28.00
2022-10-01T00:23:49.312Z,28.10
2022-10-01T00:26:20.912Z,28.00
2022-10-01T00:28:53.804Z,28.00
2022-10-01T00:31:21.897Z,28.10
2022-10-01T00:33:53.159Z,28.00
2022-10-01T00:36:21.356Z,28.10
2022-10-01T00:38:49.307Z,28.10
2022-10-01T00:41:18.662Z,28.10
2022-10-01T00:43:48.438Z,28.10
2022-10-01T00:46:21.199Z,28.00
2022-10-01T00:48:58.148Z,28.00
2022-10-01T00:51:29.608Z,28.10
2022-10-01T00:54:05.254Z,28.10
2022-10-01T00:56:34.187Z,28.00
2022-10-01T00:59:02.904Z,27.90
2022-10-01T01:01:31.263Z,27.90
2022-10-01T01:04:00.967Z,28.00
2022-10-01T01:06:29.102Z,27.90
2022-10-01T01:08:57.740Z,27.90
2022-10-01T01:11:33.189Z,27.80
2022-10-01T01:14:07.053Z,27.90
2022-10-01T01:16:39.840Z,27.90
2022-10-01T01:19:21.557Z,27.90
2022-10-01T01:21:53.928Z,27.90
2022-10-01T01:24:48.370Z,27.80
2022-10-01T01:27:26.682Z,27.80
2022-10-01T01:30:04.173Z,27.70
2022-10-01T01:32:42.763Z,27.80
2022-10-01T01:35:12.493Z,27.70
2022-10-01T01:37:43.831Z,27.60
2022-10-01T01:40:13.466Z,27.60
2022-10-01T01:42:44.958Z,27.50
2022-10-01T01:45:18.089Z,27.40
2022-10-01T01:47:46.946Z,27.50
2022-10-01T01:50:17.643Z,27.50
2022-10-01T01:52:45.936Z,27.50
2022-10-01T01:55:14.535Z,27.40
2022-10-01T01:57:45.226Z,27.50
2022-10-01T02:00:14.856Z,27.50
2022-10-01T02:02:50.187Z,27.50
2022-10-01T02:05:20.948Z,27.40
2022-10-01T02:08:08.667Z,27.50
2022-10-01T02:10:50.018Z,27.50
2022-10-01T02:13:30.587Z,27.50
2022-10-01T02:16:07.247Z,27.60
2022-10-01T02:18:42.095Z,27.50
2022-10-01T02:21:17.268Z,27.40
2022-10-01T02:23:53.245Z,27.30
2022-10-01T02:26:23.912Z,26.30
2022-10-01T02:28:55.823Z,25.90
2022-10-01T02:31:25.273Z,26.10
2022-10-01T02:33:54.898Z,25.60
2022-10-01T02:36:25.050Z,25.90
2022-10-01T02:38:55.739Z,25.90
2022-10-01T02:41:29.687Z,26.10
2022-10-01T02:44:01.342Z,26.40
2022-10-01T02:46:42.216Z,26.10
2022-10-01T02:49:13.255Z,26.30
2022-10-01T02:51:50.592Z,26.40
2022-10-01T02:54:24.344Z,26.40
2022-10-01T02:57:09.931Z,26.50
2022-10-01T02:59:37.948Z,26.80
2022-10-01T03:02:07.444Z,26.70
2022-10-01T03:04:35.435Z,26.90
2022-10-01T03:07:04.497Z,26.90
2022-10-01T03:09:32.702Z,26.80
2022-10-01T03:12:01.008Z,26.80
2022-10-01T03:14:29.558Z,26.80
2022-10-01T03:16:57.484Z,27.00
2022-10-01T03:19:26.811Z,27.10
2022-10-01T03:21:56.397Z,27.10
2022-10-01T03:24:24.320Z,27.20
2022-10-01T03:26:52.249Z,27.30
2022-10-01T03:29:20.155Z,27.30
2022-10-01T03:31:48.296Z,27.40
2022-10-01T03:34:16.318Z,27.40
2022-10-01T03:36:45.675Z,27.40
2022-10-01T03:39:14.528Z,27.50
2022-10-01T03:41:42.469Z,27.60
2022-10-01T03:44:10.370Z,27.50
2022-10-01T03:46:38.332Z,27.60
2022-10-01T03:49:06.666Z,27.60
2022-10-01T03:51:36.260Z,27.50
2022-10-01T03:54:06.988Z,27.50
2022-10-01T03:56:35.526Z,27.50
2022-10-01T03:59:03.553Z,27.40
2022-10-01T04:01:31.993Z,27.40
2022-10-01T04:04:00.223Z,27.40
2022-10-01T04:06:28.170Z,27.40
2022-10-01T04:08:56.141Z,27.40
2022-10-01T04:11:25.742Z,27.40
2022-10-01T04:13:53.668Z,27.30
2022-10-01T04:16:23.932Z,27.40
2022-10-01T04:18:51.980Z,27.40
2022-10-01T04:21:20.553Z,27.40
2022-10-01T04:23:49.863Z,27.30
2022-10-01T04:26:18.942Z,27.30
2022-10-01T04:28:48.411Z,27.30
2022-10-01T04:31:25.850Z,27.20
2022-10-01T04:33:55.121Z,27.30
2022-10-01T04:36:23.872Z,27.30
2022-10-01T04:38:54.663Z,27.30
2022-10-01T04:41:25.436Z,27.40
2022-10-01T04:43:54.692Z,27.20
2022-10-01T04:46:22.623Z,27.30
2022-10-01T04:48:50.666Z,27.30
2022-10-01T04:51:19.047Z,27.30
2022-10-01T04:53:49.221Z,27.30
2022-10-01T04:56:17.676Z,27.30
2022-10-01T04:58:45.683Z,27.30
2022-10-01T05:01:14.939Z,27.40
2022-10-01T05:03:42.863Z,27.40
2022-10-01T05:06:10.763Z,27.40
2022-10-01T05:08:39.212Z,27.40
2022-10-01T05:11:07.364Z,27.40
2022-10-01T05:13:35.326Z,27.50
2022-10-01T05:16:05.448Z,27.50
2022-10-01T05:18:34.865Z,27.50
2022-10-01T05:21:08.191Z,27.60
2022-10-01T05:23:36.116Z,27.60
2022-10-01T05:26:05.752Z,27.60
2022-10-01T05:28:35.560Z,27.60
2022-10-01T05:31:05.514Z,27.70
2022-10-01T05:33:37.720Z,27.70
2022-10-01T05:36:07.764Z,27.70
2022-10-01T05:38:37.124Z,27.70
2022-10-01T05:41:05.102Z,27.70
2022-10-01T05:43:33.243Z,27.70
2022-10-01T05:46:02.568Z,27.70
2022-10-01T05:48:37.006Z,27.70
2022-10-01T05:51:08.204Z,27.80
2022-10-01T05:53:37.559Z,27.70
2022-10-01T05:56:05.907Z,27.70
2022-10-01T05:58:35.390Z,27.70
2022-10-01T06:01:04.050Z,27.70
2022-10-01T06:03:32.117Z,27.80
2022-10-01T06:06:00.726Z,27.80
2022-10-01T06:08:30.001Z,27.80
2022-10-01T06:11:01.404Z,27.80
2022-10-01T06:13:29.776Z,27.80
2022-10-01T06:15:57.718Z,27.90
2022-10-01T06:18:27.219Z,27.90
2022-10-01T06:20:55.154Z,27.90
2022-10-01T06:23:23.142Z,27.90
2022-10-01T06:25:52.363Z,27.90
2022-10-01T06:28:22.766Z,27.80
2022-10-01T06:30:50.727Z,27.80
2022-10-01T06:33:19.029Z,27.80
2022-10-01T06:35:49.548Z,27.80
2022-10-01T06:38:19.784Z,27.90
2022-10-01T06:40:54.152Z,27.90
2022-10-01T06:43:22.597Z,27.90
2022-10-01T06:45:50.593Z,27.90
2022-10-01T06:48:19.929Z,27.90
2022-10-01T06:50:49.214Z,27.90
2022-10-01T06:53:17.648Z,27.90
2022-10-01T06:55:46.416Z,27.90
2022-10-01T06:58:17.516Z,27.90
2022-10-01T07:00:45.711Z,28.00
2022-10-01T07:03:16.369Z,28.00
2022-10-01T07:05:44.679Z,28.00
2022-10-01T07:08:13.060Z,28.10
2022-10-01T07:10:44.009Z,28.20
2022-10-01T07:13:16.010Z,28.20
2022-10-01T07:15:46.297Z,28.20
2022-10-01T07:18:17.781Z,28.30
2022-10-01T07:20:45.981Z,28.30
2022-10-01T07:23:15.547Z,28.40
2022-10-01T07:25:44.886Z,28.40
2022-10-01T07:28:18.140Z,28.40
2022-10-01T07:30:48.461Z,28.40
2022-10-01T07:33:19.129Z,28.50
2022-10-01T07:35:48.105Z,28.50
2022-10-01T07:38:16.583Z,28.50
2022-10-01T07:40:44.524Z,28.40
2022-10-01T07:43:14.565Z,28.50
2022-10-01T07:45:46.995Z,28.50
2022-10-01T07:48:15.874Z,28.60
2022-10-01T07:50:45.067Z,28.60
2022-10-01T07:53:13.694Z,28.60
2022-10-01T07:55:41.606Z,28.50
2022-10-01T07:58:10.968Z,28.60
2022-10-01T08:00:39.776Z,28.60
2022-10-01T08:03:12.008Z,28.70
2022-10-01T08:05:42.106Z,28.60
2022-10-01T08:08:10.628Z,28.60
2022-10-01T08:10:39.818Z,28.60
2022-10-01T08:13:14.412Z,28.60
2022-10-01T08:15:43.358Z,28.60
2022-10-01T08:18:13.043Z,28.60
2022-10-01T08:20:41.203Z,28.60
2022-10-01T08:23:11.293Z,28.50
2022-10-01T08:25:40.084Z,28.60
2022-10-01T08:28:08.362Z,28.60
2022-10-01T08:30:39.549Z,28.60
2022-10-01T08:33:09.661Z,28.70
2022-10-01T08:35:41.730Z,28.70
2022-10-01T08:38:10.933Z,28.70
2022-10-01T08:40:46.481Z,28.70
2022-10-01T08:43:31.105Z,28.60
2022-10-01T08:46:03.948Z,28.70
2022-10-01T08:48:44.498Z,28.70
2022-10-01T08:51:19.239Z,28.70
2022-10-01T08:53:53.989Z,28.70
2022-10-01T08:56:25.673Z,28.80
2022-10-01T08:58:58.790Z,28.80
2022-10-01T09:01:29.952Z,28.90
2022-10-01T09:04:00.709Z,28.90
2022-10-01T09:06:30.466Z,28.90
2022-10-01T09:09:13.466Z,28.90
2022-10-01T09:12:05.473Z,28.90
2022-10-01T09:14:52.049Z,28.90
2022-10-01T09:17:33.091Z,28.90
2022-10-01T09:20:12.114Z,29.00
2022-10-01T09:22:42.817Z,29.10
2022-10-01T09:25:18.002Z,29.00
2022-10-01T09:27:47.071Z,28.80
2022-10-01T09:30:18.315Z,28.50
2022-10-01T09:32:51.680Z,28.80
2022-10-01T09:35:35.010Z,28.90
2022-10-01T09:38:10.769Z,29.00
2022-10-01T09:40:46.314Z,29.00
2022-10-01T09:43:14.422Z,29.10
2022-10-01T09:45:42.758Z,29.20
2022-10-01T09:48:20.646Z,29.30
2022-10-01T09:50:56.383Z,29.40
2022-10-01T09:53:31.497Z,29.50
2022-10-01T09:56:05.967Z,29.50
2022-10-01T09:58:38.581Z,29.50
2022-10-01T10:01:18.726Z,29.50
2022-10-01T10:03:55.984Z,29.60
2022-10-01T10:06:29.272Z,29.70
2022-10-01T10:09:00.277Z,29.80
2022-10-01T10:11:31.440Z,29.80
2022-10-01T10:14:02.325Z,30.00
2022-10-01T10:16:35.572Z,30.00
2022-10-01T10:19:06.273Z,29.40
2022-10-01T10:21:35.910Z,29.70
2022-10-01T10:24:08.016Z,29.80
2022-10-01T10:26:39.365Z,30.00
2022-10-01T10:29:25.225Z,30.00
2022-10-01T10:31:55.456Z,30.00
2022-10-01T10:34:31.818Z,30.00
2022-10-01T10:37:04.938Z,30.00
2022-10-01T10:39:37.699Z,29.80
2022-10-01T10:42:07.144Z,29.80
2022-10-01T10:44:39.631Z,29.90
2022-10-01T10:47:11.262Z,29.90
2022-10-01T10:49:45.693Z,30.00
2022-10-01T10:52:23.572Z,30.00
2022-10-01T10:54:53.704Z,30.00
2022-10-01T10:57:27.706Z,30.10
2022-10-01T10:59:57.344Z,30.10
2022-10-01T11:02:26.492Z,30.10
2022-10-01T11:04:56.259Z,30.10
2022-10-01T11:07:28.695Z,30.10
2022-10-01T11:10:16.243Z,30.10
2022-10-01T11:12:58.940Z,29.90
2022-10-01T11:15:45.365Z,30.00
2022-10-01T11:18:42.715Z,30.00
2022-10-01T11:21:31.579Z,30.10
2022-10-01T11:24:11.256Z,30.00
2022-10-01T11:26:49.649Z,30.00
2022-10-01T11:29:32.767Z,30.00
2022-10-01T11:32:11.058Z,30.10
2022-10-01T11:34:55.479Z,30.10
2022-10-01T11:37:37.346Z,30.00
2022-10-01T11:40:15.389Z,29.90
2022-10-01T11:42:46.730Z,29.90
2022-10-01T11:45:23.156Z,30.10
2022-10-01T11:47:55.295Z,30.10
2022-10-01T11:50:27.093Z,30.10
2022-10-01T11:53:01.585Z,30.00
2022-10-01T11:55:52.474Z,29.90
2022-10-01T11:58:57.571Z,29.80
2022-10-01T12:01:34.327Z,29.70
2022-10-01T12:04:08.127Z,29.80
2022-10-01T12:06:41.693Z,29.80
2022-10-01T12:09:15.201Z,29.90
2022-10-01T12:11:49.304Z,29.90
2022-10-01T12:14:21.918Z,29.80
2022-10-01T12:16:55.794Z,29.90
2022-10-01T12:19:30.012Z,29.90
2022-10-01T12:22:01.483Z,29.80
2022-10-01T12:24:32.953Z,29.80
2022-10-01T12:27:30.205Z,29.80
2022-10-01T12:30:04.116Z,29.60
2022-10-01T12:32:49.549Z,29.70
2022-10-01T12:35:35.657Z,29.70
2022-10-01T12:38:17.947Z,29.70
2022-10-01T12:40:48.411Z,29.70
2022-10-01T12:43:37.413Z,29.80
2022-10-01T12:46:18.289Z,29.80
2022-10-01T12:48:57.928Z,29.80
2022-10-01T12:51:38.978Z,29.80
2022-10-01T12:54:22.049Z,29.80
2022-10-01T12:56:57.329Z,29.70
2022-10-01T12:59:41.898Z,29.60
2022-10-01T13:02:28.671Z,29.70
2022-10-01T13:05:20.084Z,29.70
2022-10-01T13:08:00.917Z,29.60
2022-10-01T13:10:48.707Z,29.60
2022-10-01T13:13:23.130Z,29.50
2022-10-01T13:15:56.079Z,29.70
2022-10-01T13:18:35.871Z,29.80
2022-10-01T13:21:11.959Z,29.90
2022-10-01T13:23:47.158Z,30.00
2022-10-01T13:26:19.393Z,30.10
2022-10-01T13:29:04.048Z,30.10
2022-10-01T13:31:42.957Z,30.10
2022-10-01T13:34:38.086Z,30.10
2022-10-01T13:37:17.286Z,30.10
2022-10-01T13:39:46.329Z,30.20
2022-10-01T13:42:38.480Z,30.20
2022-10-01T13:45:10.988Z,30.20
2022-10-01T13:47:41.152Z,30.20
2022-10-01T13:50:23.711Z,30.20
2022-10-01T13:52:52.146Z,30.20
2022-10-01T13:55:28.931Z,30.20
2022-10-01T13:58:05.086Z,30.10
2022-10-01T14:00:33.158Z,30.10
2022-10-01T14:03:04.974Z,30.10
2022-10-01T14:05:38.272Z,30.10
2022-10-01T14:08:15.410Z,30.10
2022-10-01T14:11:07.714Z,30.00
2022-10-01T14:14:01.239Z,30.00
2022-10-01T14:16:30.018Z,30.00
2022-10-01T14:19:00.644Z,29.90
2022-10-01T14:21:41.868Z,29.90
2022-10-01T14:24:23.725Z,29.90
2022-10-01T14:26:55.551Z,29.90
2022-10-01T14:29:42.169Z,29.90
2022-10-01T14:32:23.998Z,29.70
2022-10-01T14:35:11.777Z,29.80
2022-10-01T14:37:41.750Z,29.80
2022-10-01T14:40:17.538Z,29.80
2022-10-01T14:42:45.602Z,29.80
2022-10-01T14:45:18.910Z,29.80
2022-10-01T14:47:48.819Z,29.50
2022-10-01T14:50:23.046Z,28.70
2022-10-01T14:52:54.883Z,29.20
2022-10-01T14:55:24.637Z,29.20
2022-10-01T14:57:55.117Z,29.10
2022-10-01T15:00:26.676Z,29.20
2022-10-01T15:03:04.681Z,29.30
2022-10-01T15:05:34.461Z,29.20
2022-10-01T15:08:13.284Z,29.10
2022-10-01T15:10:42.754Z,29.20
2022-10-01T15:13:18.257Z,29.30
2022-10-01T15:15:46.328Z,29.30
2022-10-01T15:18:18.326Z,29.40
2022-10-01T15:20:58.737Z,29.50
2022-10-01T15:23:30.334Z,29.50
2022-10-01T15:25:59.587Z,29.50
2022-10-01T15:28:31.932Z,29.60
2022-10-01T15:31:02.366Z,29.60
2022-10-01T15:33:32.947Z,29.50
2022-10-01T15:36:03.706Z,29.60
2022-10-01T15:38:34.472Z,29.60
2022-10-01T15:41:30.065Z,29.60
2022-10-01T15:43:53.170Z,29.60
2022-10-01T15:46:29.160Z,29.50
2022-10-01T15:49:23.080Z,29.60
2022-10-01T15:52:14.073Z,29.50
2022-10-01T15:54:46.120Z,29.60
2022-10-01T15:57:20.219Z,29.50
2022-10-01T15:59:49.399Z,29.60
2022-10-01T16:02:21.281Z,29.30
2022-10-01T16:04:56.105Z,29.20
2022-10-01T16:07:30.642Z,29.20
2022-10-01T16:10:01.190Z,29.20
2022-10-01T16:12:32.756Z,29.00
2022-10-01T16:15:03.390Z,29.00
2022-10-01T16:17:34.364Z,29.10
2022-10-01T16:20:18.497Z,28.80
2022-10-01T16:22:46.466Z,28.70
2022-10-01T16:28:29.028Z,28.90
2022-10-01T16:30:57.426Z,28.80
2022-10-01T16:33:26.549Z,28.60
2022-10-01T16:36:08.224Z,28.60
2022-10-01T16:38:36.156Z,28.70
2022-10-01T16:41:05.442Z,28.70
2022-10-01T16:43:34.741Z,28.70
2022-10-01T16:46:05.280Z,28.80
2022-10-01T16:48:33.203Z,28.70
2022-10-01T16:51:01.259Z,28.70
2022-10-01T16:53:29.563Z,28.50
2022-10-01T16:55:58.071Z,28.50
2022-10-01T16:58:26.794Z,28.50
2022-10-01T17:00:56.222Z,28.40
2022-10-01T17:03:24.451Z,28.50
2022-10-01T17:05:52.562Z,28.40
2022-10-01T17:08:20.757Z,28.50
2022-10-01T17:10:53.209Z,28.40
2022-10-01T17:13:21.161Z,28.40
2022-10-01T17:15:50.655Z,28.40
2022-10-01T17:18:20.769Z,28.30
2022-10-01T17:20:48.996Z,28.40
2022-10-01T17:23:18.717Z,28.30
2022-10-01T17:25:47.275Z,28.30
2022-10-01T17:28:21.163Z,28.30
2022-10-01T17:30:50.198Z,28.10
2022-10-01T17:33:20.313Z,28.30
2022-10-01T17:35:51.647Z,28.20
2022-10-01T17:38:21.960Z,28.10
2022-10-01T17:40:55.435Z,28.10
2022-10-01T17:43:24.557Z,28.20
2022-10-01T17:45:57.414Z,28.00
2022-10-01T17:48:30.006Z,28.30
2022-10-01T17:51:03.333Z,27.90
2022-10-01T17:53:36.122Z,27.70
2022-10-01T17:56:11.022Z,27.80
2022-10-01T17:58:45.038Z,28.00
2022-10-01T18:01:21.158Z,27.90
2022-10-01T18:03:54.763Z,28.00
2022-10-01T18:06:22.845Z,27.90
2022-10-01T18:08:56.548Z,27.70
2022-10-01T18:11:25.772Z,27.70
2022-10-01T18:13:53.887Z,27.70
2022-10-01T18:16:22.476Z,27.70
2022-10-01T18:21:45.579Z,27.80
2022-10-01T18:24:15.078Z,27.90
2022-10-01T18:26:43.047Z,27.70
2022-10-01T18:29:12.538Z,27.70
2022-10-01T18:31:44.651Z,27.90
2022-10-01T18:34:21.556Z,27.80
2022-10-01T18:36:56.852Z,27.70
2022-10-01T18:39:32.529Z,27.90
2022-10-01T18:42:01.103Z,27.90
2022-10-01T18:44:29.099Z,27.80
2022-10-01T18:47:07.504Z,27.80
2022-10-01T18:49:54.967Z,27.90
2022-10-01T18:52:31.542Z,28.00
2022-10-01T18:55:21.748Z,27.80
2022-10-01T18:58:04.167Z,27.70
2022-10-01T19:00:43.279Z,27.70
2022-10-01T19:03:32.408Z,27.40
2022-10-01T19:06:26.031Z,25.90
2022-10-01T19:09:09.784Z,24.20
2022-10-01T19:11:56.281Z,23.60
2022-10-01T19:14:50.795Z,23.40
2022-10-01T19:17:35.155Z,22.80
2022-10-01T19:20:15.583Z,22.30
2022-10-01T19:22:59.358Z,22.20
2022-10-01T19:25:31.474Z,22.20
2022-10-01T19:28:11.717Z,22.00
2022-10-01T19:30:46.853Z,22.10
2022-10-01T19:33:21.066Z,22.40
2022-10-01T19:35:53.149Z,22.30
2022-10-01T19:38:29.439Z,22.80
2022-10-01T19:41:01.111Z,22.80
2022-10-01T19:43:34.442Z,22.70
2022-10-01T19:46:10.456Z,23.00
2022-10-01T19:48:49.380Z,23.10
2022-10-01T19:51:25.088Z,23.20
2022-10-01T19:54:02.086Z,22.50
2022-10-01T19:56:31.899Z,22.40
2022-10-01T19:59:03.119Z,22.30
2022-10-01T20:01:39.842Z,21.90
2022-10-01T20:04:15.777Z,21.90
2022-10-01T20:06:48.303Z,21.90
2022-10-01T20:09:28.946Z,21.80
2022-10-01T20:12:07.009Z,21.40
2022-10-01T20:15:03.943Z,21.40
2022-10-01T20:17:42.067Z,21.60
2022-10-01T20:20:19.349Z,22.00
2022-10-01T20:23:02.152Z,21.80
2022-10-01T20:25:42.696Z,21.80
2022-10-01T20:28:17.273Z,21.70
2022-10-01T20:31:01.152Z,21.80
2022-10-01T20:33:38.782Z,21.90
2022-10-01T20:36:15.318Z,22.10
2022-10-01T20:38:50.693Z,22.00
2022-10-01T20:41:23.860Z,22.40
2022-10-01T20:43:56.351Z,22.70
2022-10-01T20:46:32.249Z,22.80
2022-10-01T20:49:05.286Z,23.20
2022-10-01T20:51:40.157Z,23.20
2022-10-01T20:54:12.019Z,23.30
2022-10-01T20:56:45.391Z,23.00
2022-10-01T20:59:19.240Z,22.90
2022-10-01T21:01:54.591Z,23.20
2022-10-01T21:04:29.915Z,23.50
2022-10-01T21:07:02.847Z,23.60
2022-10-01T21:09:35.749Z,23.60
2022-10-01T21:12:11.203Z,23.90
2022-10-01T21:14:43.088Z,23.90
2022-10-01T21:17:36.603Z,23.90
2022-10-01T21:20:41.992Z,23.90
2022-10-01T21:23:21.469Z,23.70
2022-10-01T21:26:04.249Z,23.60
2022-10-01T21:28:48.342Z,23.60
2022-10-01T21:31:29.916Z,23.60
2022-10-01T21:34:03.402Z,23.60
2022-10-01T21:36:38.268Z,23.50
2022-10-01T21:39:12.629Z,23.80
2022-10-01T21:41:56.036Z,23.90
2022-10-01T21:44:46.348Z,23.70
2022-10-01T21:47:22.305Z,23.50
2022-10-01T21:50:00.973Z,23.00
2022-10-01T21:52:41.890Z,22.90
2022-10-01T21:55:33.080Z,22.90
2022-10-01T21:58:14.106Z,22.60
2022-10-01T22:00:44.518Z,22.40
2022-10-01T22:03:20.039Z,22.40
2022-10-01T22:05:54.597Z,22.50
2022-10-01T22:08:35.569Z,22.70
2022-10-01T22:11:09.998Z,22.80
2022-10-01T22:13:42.307Z,22.50
2022-10-01T22:16:15.290Z,22.50
2022-10-01T22:18:49.465Z,22.70
2022-10-01T22:21:24.418Z,22.90
2022-10-01T22:23:58.545Z,22.90
2022-10-01T22:26:30.734Z,22.70
2022-10-01T22:29:01.865Z,22.90
2022-10-01T22:31:35.013Z,23.00
2022-10-01T22:34:07.330Z,22.80
2022-10-01T22:36:41.442Z,22.90
2022-10-01T22:39:16.391Z,23.00
2022-10-01T22:41:47.721Z,23.50
2022-10-01T22:44:17.141Z,23.80
2022-10-01T22:47:02.159Z,23.50
2022-10-01T22:49:46.871Z,23.80
2022-10-01T22:52:24.909Z,23.30
2022-10-01T22:55:05.543Z,23.30
2022-10-01T22:57:58.889Z,22.90
2022-10-01T23:00:27.141Z,23.00
2022-10-01T23:03:08.782Z,22.90
2022-10-01T23:05:51.602Z,22.90
2022-10-01T23:08:26.684Z,23.10
2022-10-01T23:11:04.666Z,23.00
2022-10-01T23:13:43.691Z,23.00
2022-10-01T23:16:21.334Z,23.20
2022-10-01T23:18:59.890Z,23.00
2022-10-01T23:21:37.916Z,22.90
2022-10-01T23:24:17.890Z,22.60
2022-10-01T23:26:56.667Z,22.60
2022-10-01T23:30:11.588Z,22.60
2022-10-01T23:32:51.098Z,22.80
2022-10-01T23:35:21.537Z,22.70
2022-10-01T23:38:05.100Z,22.60
2022-10-01T23:40:37.481Z,22.70
2022-10-01T23:43:12.013Z,22.90
2022-10-01T23:45:45.618Z,22.80
2022-10-01T23:48:19.020Z,22.90
2022-10-01T23:50:56.098Z,23.10
2022-10-01T23:53:28.722Z,22.90
2022-10-01T23:56:21.097Z,22.50
2022-10-01T23:58:55.311Z,22.50
